Data for 06/17/2014

Time Sea-Level Adjusted Pressure Absolute Pressure Temperature Relative Humidity Dew Point   
(mb) (inHg) (mb) (inHg) (C) (F) (%) (C) (F)
00:05 1010 29.83 839 24.78 7.6 45.7 94 6.8 44.2
00:10 1010 29.83 839 24.78 7.7 45.9 94 6.8 44.3
00:15 1010 29.83 839 24.78 7.7 45.9 94 6.8 44.3
00:20 1010 29.83 839 24.78 7.8 46 94 6.9 44.3
00:25 1010 29.83 839 24.78 7.8 46.1 94 6.9 44.4
00:30 1010 29.83 839 24.78 7.7 45.8 93 6.6 44
00:35 1010 29.83 839 24.78 7.6 45.8 94 6.7 44
00:40 1010 29.83 839 24.78 7.7 45.9 93 6.7 44.1
00:45 1010 29.83 839 24.78 7.8 46 93 6.6 44
00:50 1010 29.83 839 24.78 7.8 46.1 92 6.7 44
00:55 1010 29.83 839 24.78 7.9 46.2 92 6.7 44.1
01:00 1010 29.83 839 24.78 7.9 46.3 92 6.8 44.2
01:05 1010 29.83 839 24.78 8 46.3 92 6.7 44.1
01:10 1010 29.83 839 24.78 7.9 46.3 91 6.6 43.9
01:15 1010 29.83 839 24.78 8 46.3 91 6.6 43.9
01:20 1010 29.83 839 24.78 8 46.3 91 6.5 43.7
01:25 1010 29.83 839 24.78 7.9 46.3 91 6.5 43.7
01:30 1010 29.83 839 24.78 7.8 46.1 91 6.5 43.7
01:35 1010 29.83 839 24.78 7.9 46.1 92 6.6 43.8
01:40 1010 29.83 839 24.78 7.9 46.2 92 6.6 43.9
01:45 1010 29.83 839 24.78 7.9 46.2 91 6.6 43.9
01:50 1010 29.83 839 24.78 8 46.3 91 6.6 43.8
01:55 1010 29.83 839 24.78 7.8 46.1 91 6.5 43.7
02:00 1010 29.83 839 24.78 7.7 45.8 92 6.4 43.6
02:05 1010 29.83 839 24.78 7.7 45.9 92 6.5 43.7
02:10 1010 29.83 839 24.78 7.8 46 92 6.5 43.7
02:15 1010 29.83 839 24.78 7.8 46.1 92 6.5 43.8
02:20 1010 29.83 839 24.78 7.9 46.2 91 6.5 43.7
02:25 1010 29.83 839 24.78 7.9 46.3 91 6.6 43.9
02:30 1010 29.83 839 24.78 7.9 46.2 91 6.5 43.8
02:35 1010 29.83 839 24.78 7.9 46.2 91 6.5 43.8
02:40 1010 29.83 839 24.78 7.9 46.3 91 6.5 43.8
02:45 1010 29.83 839 24.78 7.9 46.2 90 6.4 43.6
02:50 1010 29.83 839 24.78 7.8 46.1 90 6.3 43.4
02:55 1010 29.83 839 24.78 7.8 46 90 6.3 43.3
03:00 1010 29.83 839 24.78 7.8 46 91 6.3 43.4
03:05 1010 29.83 839 24.78 7.8 46 91 6.3 43.4
03:10 1010 29.83 839 24.78 7.7 45.9 91 6.3 43.4
03:15 1010 29.83 839 24.78 7.8 46 91 6.4 43.5
03:20 1010 29.83 839 24.78 7.8 46 91 6.4 43.5
03:25 1010 29.83 839 24.78 7.8 46 91 6.4 43.4
03:30 1010 29.83 839 24.78 7.8 46 91 6.3 43.4
03:35 1010 29.83 839 24.78 7.8 46.1 91 6.4 43.5
03:40 1010 29.83 839 24.78 7.8 46.1 90 6.4 43.5
03:45 1010 29.83 839 24.78 7.8 46.1 91 6.4 43.5
03:50 1010 29.83 839 24.78 7.8 46.1 90 6.3 43.3
03:55 1010 29.83 839 24.78 7.8 46 90 6.3 43.3
04:00 1010 29.83 839 24.78 7.8 46.1 90 6.4 43.4
04:05 1010 29.83 839 24.78 7.7 45.9 90 6.2 43.2
04:10 1010 29.83 839 24.78 7.7 45.8 90 6.1 43.1
04:15 1010 29.83 839 24.78 7.6 45.7 90 6.1 43.1
04:20 1010 29.83 839 24.78 7.6 45.7 91 6.1 43.1
04:25 1010 29.83 839 24.78 7.5 45.5 90 6 42.8
04:30 1010 29.83 839 24.78 7.4 45.3 90 5.9 42.6
04:35 1010 29.83 839 24.78 7.4 45.3 90 5.9 42.6
04:40 1010 29.83 839 24.78 7.3 45.2 90 5.8 42.5
04:45 1010 29.83 839 24.78 7.3 45.1 91 5.8 42.5
04:50 1010 29.83 839 24.78 7.2 45 90 5.8 42.4
04:55 1010 29.83 839 24.78 7.2 45 90 5.7 42.3
05:00 1010 29.83 839 24.78 7.2 45 90 5.7 42.3
05:05 1010 29.83 839 24.78 7.3 45.1 90 5.8 42.4
05:10 1010 29.83 839 24.78 7.3 45.1 90 5.8 42.4
05:15 1010 29.83 839 24.78 7.3 45.1 90 5.7 42.3
05:20 1010 29.83 839 24.78 7.2 45 89 5.5 41.9
05:25 1010 29.83 839 24.78 7.2 45 87 5.2 41.4
05:30 1010 29.83 839 24.78 7.2 44.9 89 5.4 41.7
05:35 1010 29.83 839 24.78 7.1 44.8 89 5.3 41.6
05:40 1010 29.83 839 24.78 7 44.6 89 5.4 41.7
05:45 1010 29.83 839 24.78 7 44.6 89 5.4 41.7
05:50 1010 29.83 839 24.78 7.1 44.8 89 5.4 41.7
05:55 1010 29.83 839 24.78 7.2 44.9 88 5.3 41.5
06:00 1010 29.83 840 24.81 7.3 45.1 87 5.3 41.6
06:05 1010 29.83 840 24.81 7.2 45 88 5.4 41.8
06:10 1011 29.85 840 24.81 7.2 45 88 5.4 41.7
06:15 1011 29.85 840 24.81 7.2 45 88 5.4 41.8
06:20 1010 29.83 840 24.81 7.3 45.1 89 5.6 42
06:25 1010 29.83 840 24.81 7.3 45.2 89 5.7 42.2
06:30 1010 29.83 840 24.81 7.4 45.3 89 5.8 42.4
06:35 1010 29.83 840 24.81 7.4 45.4 89 5.8 42.5
06:40 1010 29.83 839 24.78 7.5 45.4 90 5.9 42.6
06:45 1010 29.83 840 24.81 7.5 45.5 90 5.9 42.6
06:50 1010 29.83 840 24.81 7.5 45.5 90 5.9 42.7
06:55 1010 29.83 840 24.81 7.6 45.6 89 5.9 42.7
07:00 1011 29.85 840 24.81 7.6 45.7 89 5.8 42.5
07:05 1011 29.85 840 24.81 7.7 45.8 89 5.9 42.6
07:10 1011 29.85 840 24.81 7.7 45.8 88 5.9 42.6
07:15 1011 29.85 840 24.81 7.8 46 88 5.9 42.6
07:20 1011 29.85 840 24.81 7.8 46.1 87 5.9 42.6
07:25 1011 29.85 840 24.81 7.8 46.1 87 5.8 42.5
07:30 1011 29.85 840 24.81 7.9 46.2 87 5.9 42.7
07:35 1011 29.85 840 24.81 8.1 46.5 86 5.9 42.6
07:40 1011 29.85 840 24.81 8.1 46.5 86 5.8 42.5
07:45 1011 29.85 840 24.81 8.2 46.8 86 6.1 42.9
07:50 1011 29.85 840 24.81 8.5 47.3 84 5.9 42.6
07:55 1011 29.85 840 24.81 7.6 45.7 89 5.9 42.6
08:00 1011 29.85 840 24.81 7.3 45.2 90 5.8 42.5
08:05 1011 29.85 840 24.81 7.6 45.6 88 5.7 42.3
08:10 1011 29.85 840 24.81 7.4 45.4 89 5.8 42.4
08:15 1011 29.85 840 24.81 7.3 45.1 90 5.7 42.3
08:20 1011 29.85 841 24.83 7.2 45 90 5.8 42.4
08:25 1011 29.85 841 24.83 7.4 45.4 89 5.7 42.2
08:30 1011 29.85 841 24.83 7.3 45.2 90 5.8 42.4
08:35 1012 29.88 841 24.83 7.2 44.9 91 5.8 42.4
08:40 1012 29.88 841 24.83 7.2 44.9 91 5.8 42.4
08:45 1012 29.88 841 24.83 7.3 45.2 90 5.9 42.5
08:50 1012 29.88 841 24.83 7.5 45.5 90 6 42.9
08:55 1012 29.88 841 24.83 7.5 45.4 90 5.9 42.7
09:00 1012 29.88 841 24.83 7.5 45.4 91 6.2 43.1
09:05 1012 29.88 841 24.83 7.7 45.8 89 6 42.7
09:10 1012 29.88 841 24.83 7.3 45.1 86 5.1 41.1
09:15 1012 29.88 841 24.83 7.1 44.9 86 4.9 40.8
09:20 1012 29.88 841 24.83 7 44.7 87 5.1 41.1
09:25 1012 29.88 841 24.83 7.1 44.8 87 5.1 41.2
09:30 1012 29.88 841 24.83 7.3 45.1 86 5 41
09:35 1012 29.88 841 24.83 7.6 45.6 84 5.1 41.2
09:40 1012 29.88 841 24.83 7.8 46 83 5.2 41.3
09:45 1012 29.88 841 24.83 7.8 46 84 5.2 41.4
09:50 1012 29.88 842 24.86 7.7 45.9 82 4.9 40.8
09:55 1013 29.91 842 24.86 7.7 45.9 82 4.8 40.6
10:00 1013 29.91 842 24.86 7.7 45.8 82 4.8 40.7
10:05 1013 29.91 842 24.86 7.5 45.5 81 4.5 40
10:10 1013 29.91 842 24.86 7.7 45.8 80 4.5 40
10:15 1013 29.91 842 24.86 7.8 46 80 4.6 40.3
10:20 1013 29.91 842 24.86 7.8 46 81 4.7 40.5
10:25 1013 29.91 842 24.86 7.8 46 82 4.9 40.7
10:30 1013 29.91 842 24.86 7.6 45.8 81 4.6 40.2
10:35 1013 29.91 842 24.86 7.5 45.5 80 4.2 39.6
10:40 1013 29.91 842 24.86 7.2 45 82 4.4 39.9
10:45 1013 29.91 842 24.86 7.3 45.2 83 4.6 40.2
10:50 1013 29.91 842 24.86 7.4 45.3 81 4.3 39.7
10:55 1013 29.91 842 24.86 7.5 45.5 79 4.2 39.5
11:00 1013 29.91 842 24.86 7.6 45.7 80 4.4 40
11:05 1013 29.91 842 24.86 7.6 45.8 82 4.7 40.5
11:10 1013 29.91 842 24.86 7.8 46 77 4.1 39.3
11:15 1013 29.91 842 24.86 7.9 46.3 77 4.2 39.5
11:20 1013 29.91 842 24.86 8.1 46.6 75 4 39.2
11:25 1013 29.91 842 24.86 8.4 47.1 78 4.9 40.8
11:30 1013 29.91 842 24.86 9.1 48.4 70 4 39.1
11:35 1013 29.91 842 24.86 9.7 49.4 69 4.4 39.9
11:40 1013 29.91 842 24.86 10.2 50.4 73 5.6 42
11:45 1013 29.91 842 24.86 10.8 51.4 65 4.5 40.1
11:50 1013 29.91 842 24.86 10.6 51.2 66 4.6 40.3
11:55 1013 29.91 842 24.86 10.8 51.5 62 4 39.1
12:00 1013 29.91 842 24.86 11.2 52.1 57 3.1 37.6
12:05 1013 29.91 842 24.86 11.5 52.7 58 3.5 38.3
12:10 1013 29.91 842 24.86 10.9 51.7 55 2.4 36.3
12:15 1013 29.91 842 24.86 11.8 53.3 53 2.8 37
12:20 1013 29.91 842 24.86 11.6 52.9 57 3.4 38.2
12:25 1013 29.91 842 24.86 11.7 53 56 3.2 37.7
12:30 1013 29.91 842 24.86 11 51.9 56 2.6 36.6
12:35 1013 29.91 842 24.86 10.9 51.7 60 3.4 38.2
12:40 1013 29.91 843 24.89 10 50.1 75 5.8 42.4
12:45 1013 29.91 843 24.89 8.4 47.1 79 5 41
12:50 1014 29.94 843 24.89 7.6 45.6 83 4.8 40.7
12:55 1014 29.94 843 24.89 7.3 45.1 85 4.8 40.7
13:00 1014 29.94 843 24.89 7 44.6 84 4.5 40.1
13:05 1014 29.94 843 24.89 7 44.5 85 4.6 40.3
13:10 1014 29.94 843 24.89 7 44.6 83 4.4 39.9
13:15 1014 29.94 843 24.89 7.5 45.4 80 4.3 39.8
13:20 1014 29.94 843 24.89 7.9 46.3 80 4.7 40.5
13:25 1014 29.94 843 24.89 8.6 47.5 80 5.4 41.7
13:30 1014 29.94 843 24.89 9 48.2 77 5.2 41.3
13:35 1014 29.94 843 24.89 9 48.3 76 5 41
13:40 1014 29.94 843 24.89 9.1 48.3 76 5.1 41.3
13:45 1014 29.94 843 24.89 8.8 47.8 76 4.7 40.5
13:50 1014 29.94 843 24.89 8.6 47.6 80 5.3 41.6
13:55 1014 29.94 843 24.89 9.1 48.3 76 5.1 41.2
14:00 1014 29.94 843 24.89 9.6 49.2 71 4.5 40.1
14:05 1014 29.94 843 24.89 9.8 49.7 70 4.6 40.4
14:10 1014 29.94 843 24.89 10.1 50.1 67 4.3 39.7
14:15 1014 29.94 843 24.89 10.2 50.4 63 3.6 38.5
14:20 1014 29.94 843 24.89 9.9 49.7 71 5 40.9
14:25 1014 29.94 843 24.89 10.4 50.7 66 4.4 39.9
14:30 1014 29.94 843 24.89 10.4 50.7 61 3.3 37.9
14:35 1014 29.94 843 24.89 10.2 50.4 64 3.7 38.7
14:40 1014 29.94 843 24.89 11.5 52.7 54 2.6 36.6
14:45 1014 29.94 843 24.89 11.3 52.3 62 4.4 40
14:50 1014 29.94 843 24.89 11.8 53.2 55 3.2 37.8
14:55 1014 29.94 843 24.89 11.3 52.4 59 3.7 38.7
15:00 1014 29.94 843 24.89 10.6 51 69 5.2 41.3
15:05 1014 29.94 843 24.89 10.4 50.6 66 4.4 39.9
15:10 1014 29.94 843 24.89 10.1 50.2 67 4.4 39.9
15:15 1014 29.94 843 24.89 10.1 50.1 69 4.8 40.6
15:20 1014 29.94 843 24.89 9.5 49.1 69 4.1 39.4
15:25 1014 29.94 843 24.89 9.7 49.4 69 4.4 39.9
15:30 1014 29.94 843 24.89 9.5 49.2 73 5 41
15:35 1014 29.94 843 24.89 10.1 50.3 73 5.5 41.8
15:40 1014 29.94 843 24.89 10.1 50.2 71 5 41.1
15:45 1014 29.94 843 24.89 10.7 51.2 63 3.9 39
15:50 1014 29.94 843 24.89 11 51.9 61 3.8 38.8
15:55 1014 29.94 843 24.89 10.8 51.5 64 4.2 39.6
16:00 1014 29.94 843 24.89 11.4 52.4 59 3.7 38.6
16:05 1014 29.94 843 24.89 11.1 51.9 59 3.5 38.2
16:10 1014 29.94 843 24.89 11.6 52.8 54 2.6 36.7
16:15 1014 29.94 843 24.89 12 53.6 53 2.8 37.1
16:20 1014 29.94 843 24.89 11.6 52.8 52 2 35.6
16:25 1014 29.94 843 24.89 11.9 53.3 52 2.4 36.4
16:30 1014 29.94 843 24.89 11.6 52.9 52 2.2 36
16:35 1014 29.94 843 24.89 11.5 52.7 54 2.6 36.8
16:40 1014 29.94 843 24.89 11.2 52.2 52 1.7 35.1
16:45 1014 29.94 843 24.89 11.5 52.6 48 0.8 33.4
16:50 1014 29.94 843 24.89 11.6 52.9 47 0.8 33.4
16:55 1014 29.94 843 24.89 12.2 54 45 0.8 33.4
17:00 1014 29.94 843 24.89 12.2 54 51 2.5 36.5
17:05 1014 29.94 843 24.89 11.7 53.1 49 1.3 34.4
17:10 1014 29.94 843 24.89 11.9 53.5 47 1.1 34
17:15 1014 29.94 843 24.89 12.8 55 45 1.1 33.9
17:20 1014 29.94 843 24.89 13.6 56.4 43 1.3 34.3
17:25 1014 29.94 843 24.89 13.4 56.1 46 2 35.5
17:30 1014 29.94 843 24.89 12.7 54.8 46 1.4 34.5
17:35 1014 29.94 843 24.89 12.2 53.9 47 1.3 34.3
17:40 1014 29.94 843 24.89 12.4 54.3 43 0.3 32.5
17:45 1014 29.94 843 24.89 12.7 54.8 44 0.7 33.3
17:50 1014 29.94 843 24.89 12.8 55.1 43 0.8 33.4
17:55 1014 29.94 843 24.89 13.2 55.8 41 0.4 32.7
18:00 1014 29.94 843 24.89 13.6 56.4 42 1 33.9
18:05 1014 29.94 843 24.89 13.7 56.7 39 0.2 32.4
18:10 1014 29.94 843 24.89 13.1 55.6 43 0.9 33.6
18:15 1014 29.94 843 24.89 12.8 55 43 0.6 33
18:20 1014 29.94 843 24.89 13.1 55.6 44 1.2 34.1
18:25 1014 29.94 843 24.89 13 55.3 43 0.6 33.1
18:30 1014 29.94 843 24.89 12.8 55.1 43 0.6 33.1
18:35 1014 29.94 843 24.89 12.8 55.1 44 1.1 34
18:40 1014 29.94 843 24.89 12.7 54.9 44 0.8 33.5
18:45 1014 29.94 843 24.89 12.6 54.7 44 0.6 33.1
18:50 1014 29.94 843 24.89 12.6 54.6 45 1 33.8
18:55 1014 29.94 843 24.89 12.2 54 48 1.5 34.8
19:00 1014 29.94 843 24.89 11.7 53.1 48 1.2 34.2
19:05 1014 29.94 844 24.92 11.7 53.1 49 1.3 34.4
19:10 1014 29.94 844 24.92 11.9 53.4 48 1.2 34.1
19:15 1015 29.97 844 24.92 12 53.5 47 1.1 33.9
19:20 1014 29.94 844 24.92 11.9 53.5 48 1.2 34.2
19:25 1015 29.97 844 24.92 11.8 53.3 48 1.2 34.2
19:30 1015 29.97 844 24.92 11.7 53 54 2.6 36.7
19:35 1014 29.94 844 24.92 11 51.8 59 3.4 38
19:40 1014 29.94 844 24.92 10.4 50.7 61 3.2 37.7
19:45 1015 29.97 844 24.92 10 50 62 3.1 37.6
19:50 1015 29.97 844 24.92 9.9 49.8 63 3.3 37.9
19:55 1015 29.97 844 24.92 9.8 49.6 64 3.3 38
20:00 1015 29.97 844 24.92 9.5 49.2 67 3.8 38.8
20:05 1015 29.97 844 24.92 9.3 48.7 69 4 39.2
20:10 1015 29.97 844 24.92 9.1 48.4 71 4.2 39.6
20:15 1015 29.97 844 24.92 8.9 48.1 74 4.6 40.3
20:20 1015 29.97 844 24.92 8.8 47.8 74 4.4 39.9
20:25 1015 29.97 844 24.92 8.7 47.6 75 4.6 40.2
20:30 1015 29.97 844 24.92 8.5 47.3 77 4.7 40.5
20:35 1015 29.97 844 24.92 8.2 46.8 75 4.2 39.5
20:40 1015 29.97 845 24.95 8.2 46.7 77 4.4 39.9
20:45 1016 30 845 24.95 8.2 46.7 78 4.5 40.2
20:50 1016 30 845 24.95 8.2 46.7 78 4.5 40.1
20:55 1016 30 845 24.95 8.2 46.8 77 4.4 39.9
21:00 1016 30 845 24.95 8.3 46.9 77 4.4 40
21:05 1015 29.97 845 24.95 8.3 46.9 73 3.8 38.9
21:10 1015 29.97 844 24.92 8.3 47 73 3.8 38.8
21:15 1015 29.97 844 24.92 8.3 46.9 74 4 39.2
21:20 1015 29.97 845 24.95 8.2 46.8 73 3.7 38.6
21:25 1015 29.97 845 24.95 8.2 46.8 73 3.6 38.5
21:30 1016 30 845 24.95 8.1 46.7 73 3.6 38.4
21:35 1016 30 845 24.95 8.2 46.7 72 3.4 38.1
21:40 1016 30 845 24.95 8 46.4 75 4 39.1
21:45 1016 30 845 24.95 7.9 46.3 74 3.7 38.6
21:50 1016 30 845 24.95 7.9 46.2 74 3.6 38.5
21:55 1016 30 845 24.95 7.8 46.1 74 3.6 38.4
22:00 1015 29.97 845 24.95 7.7 45.9 76 3.8 38.9
22:05 1015 29.97 845 24.95 7.7 45.9 75 3.6 38.5
22:10 1015 29.97 845 24.95 7.8 46 75 3.6 38.5
22:15 1015 29.97 845 24.95 7.6 45.8 80 4.4 39.9
22:20 1015 29.97 845 24.95 7.4 45.3 81 4.3 39.8
22:25 1015 29.97 845 24.95 7.2 45 81 4.1 39.5
22:30 1015 29.97 845 24.95 7.2 44.9 82 4.3 39.7
22:35 1015 29.97 845 24.95 7.1 44.8 81 4.1 39.4
22:40 1015 29.97 845 24.95 7.1 44.8 81 4.1 39.4
22:45 1015 29.97 844 24.92 7 44.6 82 4.2 39.5
22:50 1015 29.97 844 24.92 7 44.6 84 4.4 39.9
22:55 1015 29.97 844 24.92 7.1 44.7 83 4.4 40
23:00 1015 29.97 844 24.92 7.2 44.9 82 4.2 39.6
23:05 1015 29.97 844 24.92 7.1 44.8 83 4.5 40.1
23:10 1015 29.97 845 24.95 7.1 44.7 83 4.4 39.9
23:15 1016 30 845 24.95 7 44.7 82 4.2 39.6
23:20 1016 30 845 24.95 7 44.5 85 4.5 40.2
23:25 1016 30 845 24.95 7 44.6 83 4.3 39.7
23:30 1016 30 845 24.95 7 44.7 81 4.1 39.3
23:35 1016 30 845 24.95 7 44.7 83 4.3 39.8
23:40 1016 30 845 24.95 7.1 44.7 83 4.3 39.8
23:45 1016 30 845 24.95 6.9 44.5 85 4.5 40.2
23:50 1016 30 845 24.95 6.7 44 86 4.5 40.1
23:55 1016 30 845 24.95 6.5 43.7 85 4.2 39.6
24:00 1016 30 845 24.95 6.4 43.4 86 4.1 39.4